createdAt,value
2022-09-12T00:04:20.890Z,8.40
2022-09-12T00:09:19.044Z,6.93
2022-09-12T00:14:19.729Z,7.73
2022-09-12T00:19:18.761Z,8.53
2022-09-12T00:24:16.894Z,5.60
2022-09-12T00:29:19.104Z,6.60
2022-09-12T00:34:17.212Z,10.23
2022-09-12T00:39:17.842Z,7.40
2022-09-12T00:44:46.499Z,8.60
2022-09-12T00:49:49.697Z,8.10
2022-09-12T00:54:53.973Z,6.50
2022-09-12T00:59:56.079Z,7.13
2022-09-12T01:04:54.279Z,8.53
2022-09-12T01:09:52.556Z,7.40
2022-09-12T01:14:50.806Z,7.30
2022-09-12T01:20:19.518Z,10.10
2022-09-12T01:25:29.861Z,8.70
2022-09-12T01:30:56.061Z,7.73
2022-09-12T01:36:03.820Z,8.93
2022-09-12T01:41:10.541Z,7.97
2022-09-12T01:46:17.431Z,9.73
2022-09-12T01:51:21.448Z,8.53
2022-09-12T01:56:22.704Z,7.77
2022-09-12T02:01:25.630Z,10.70
2022-09-12T02:06:28.899Z,7.53
2022-09-12T02:11:27.088Z,7.00
2022-09-12T02:16:33.007Z,8.30
2022-09-12T02:21:33.071Z,7.60
2022-09-12T02:26:35.353Z,8.03
2022-09-12T02:31:41.582Z,10.43
2022-09-12T02:36:50.041Z,9.20
2022-09-12T02:41:48.646Z,6.53
2022-09-12T02:46:50.695Z,9.50
2022-09-12T02:51:53.110Z,9.30
2022-09-12T02:56:51.230Z,11.03
2022-09-12T03:02:07.916Z,8.83
2022-09-12T03:07:14.711Z,9.23
2022-09-12T03:12:26.917Z,8.33
2022-09-12T03:17:39.083Z,9.13
2022-09-12T03:22:50.907Z,7.83
2022-09-12T03:27:57.194Z,7.13
2022-09-12T03:32:56.699Z,11.30
2022-09-12T03:37:55.033Z,10.37
2022-09-12T03:42:53.680Z,8.67
2022-09-12T03:47:51.839Z,8.83
2022-09-12T03:52:51.517Z,11.20
2022-09-12T03:57:49.649Z,11.23
2022-09-12T04:02:48.019Z,16.93
2022-09-12T04:07:46.291Z,11.23
2022-09-12T04:12:45.762Z,15.87
2022-09-12T04:17:43.911Z,13.70
2022-09-12T04:22:42.134Z,9.60
2022-09-12T04:27:40.587Z,20.20
2022-09-12T04:32:41.423Z,17.17
2022-09-12T04:37:39.848Z,15.87
2022-09-12T04:42:38.010Z,13.70
2022-09-12T04:47:36.385Z,21.23
2022-09-12T04:52:35.926Z,19.27
2022-09-12T04:57:34.446Z,28.37
2022-09-12T05:02:34.700Z,25.23
2022-09-12T05:07:33.147Z,24.47
2022-09-12T05:12:32.841Z,30.53
2022-09-12T05:17:31.231Z,26.63
2022-09-12T05:22:29.393Z,27.77
2022-09-12T05:27:27.524Z,28.83
2022-09-12T05:32:27.017Z,33.37
2022-09-12T05:37:25.190Z,45.10
2022-09-12T05:42:23.488Z,43.37
2022-09-12T05:47:21.565Z,50.50
2022-09-12T05:52:21.376Z,20.10
2022-09-12T05:57:19.569Z,23.83
2022-09-12T06:02:18.224Z,29.17
2022-09-12T06:07:16.367Z,250.73
2022-09-12T06:12:15.869Z,109.00
2022-09-12T06:17:14.344Z,182.33
2022-09-12T06:22:12.500Z,254.93
2022-09-12T06:27:10.751Z,91.17
2022-09-12T06:32:10.527Z,98.40
2022-09-12T06:37:08.710Z,145.63
2022-09-12T06:42:07.151Z,324.30
2022-09-12T06:47:06.564Z,121.10
2022-09-12T06:52:07.296Z,67.90
2022-09-12T06:57:05.600Z,78.03
2022-09-12T07:02:03.998Z,44.20
2022-09-12T07:07:02.257Z,205.27
2022-09-12T07:12:04.381Z,174.87
2022-09-12T07:17:02.662Z,32.43
2022-09-12T07:22:00.805Z,56.93
2022-09-12T07:26:58.925Z,47.70
2022-09-12T07:31:58.470Z,152.90
2022-09-12T07:36:56.629Z,91.77
2022-09-12T07:41:54.791Z,83.17
2022-09-12T07:46:52.909Z,191.53
2022-09-12T07:51:53.185Z,29.53
2022-09-12T07:56:51.744Z,15.37
2022-09-12T08:01:49.874Z,17.23
2022-09-12T08:06:48.102Z,14.30
2022-09-12T08:11:47.659Z,10.53
2022-09-12T08:16:45.884Z,12.13
2022-09-12T08:21:44.036Z,10.83
2022-09-12T08:26:43.012Z,8.53
2022-09-12T08:31:42.586Z,8.40
2022-09-12T08:36:41.022Z,9.93
2022-09-12T08:41:41.166Z,5.80
2022-09-12T08:46:49.946Z,45.57
2022-09-12T08:51:48.496Z,4.57
2022-09-12T08:56:47.846Z,3.60
2022-09-12T09:01:52.064Z,8.30
2022-09-12T09:07:21.254Z,32.77
2022-09-12T09:12:27.865Z,4.67
2022-09-12T09:17:32.280Z,4.00
2022-09-12T09:22:38.967Z,4.87
2022-09-12T09:27:42.367Z,5.60
2022-09-12T09:32:43.671Z,3.40
2022-09-12T09:37:44.946Z,3.40
2022-09-12T09:42:50.914Z,4.23
2022-09-12T09:47:55.412Z,3.00
2022-09-12T09:52:55.142Z,2.90
2022-09-12T09:57:57.228Z,3.03
2022-09-12T10:03:23.125Z,4.43
2022-09-12T10:08:23.964Z,4.43
2022-09-12T10:13:28.395Z,1.47
2022-09-12T10:18:42.773Z,2.57
2022-09-12T10:23:41.385Z,2.80
2022-09-12T10:28:41.483Z,2.20
2022-09-12T10:33:44.099Z,1.97
2022-09-12T10:38:51.646Z,2.27
2022-09-12T10:43:50.856Z,2.37
2022-09-12T10:48:52.109Z,1.70
2022-09-12T10:53:51.191Z,1.97
2022-09-12T10:59:07.942Z,1.60
2022-09-12T11:04:25.424Z,1.70
2022-09-12T11:09:28.225Z,1.77
2022-09-12T11:14:40.680Z,1.70
2022-09-12T11:19:55.063Z,1.73
2022-09-12T11:25:24.841Z,1.77
2022-09-12T11:30:23.440Z,2.60
2022-09-12T11:35:26.181Z,1.90
2022-09-12T11:40:32.454Z,1.43
2022-09-12T11:45:36.143Z,2.20
2022-09-12T11:50:35.620Z,1.87
2022-09-12T11:55:45.920Z,1.70
2022-09-12T12:00:48.500Z,1.50
2022-09-12T12:05:53.512Z,2.20
2022-09-12T12:10:55.911Z,1.60
2022-09-12T12:15:56.784Z,2.30
2022-09-12T12:20:58.017Z,1.90
2022-09-12T12:25:58.234Z,2.03
2022-09-12T12:31:05.880Z,1.70
2022-09-12T12:36:08.909Z,1.70
2022-09-12T12:41:43.732Z,1.90
2022-09-12T12:46:41.914Z,1.67
2022-09-12T12:51:55.880Z,1.60
2022-09-12T12:57:07.366Z,2.10
2022-09-12T13:02:05.943Z,2.10
2022-09-12T13:07:08.757Z,1.70
2022-09-12T13:12:11.000Z,1.40
2022-09-12T13:17:15.493Z,1.50
2022-09-12T13:22:15.477Z,1.90
2022-09-12T13:27:19.519Z,1.67
2022-09-12T13:32:19.030Z,1.80
2022-09-12T13:37:49.710Z,1.97
2022-09-12T13:42:50.122Z,1.80
2022-09-12T13:47:49.993Z,1.80
2022-09-12T13:52:53.365Z,1.97
2022-09-12T13:57:59.009Z,1.57
2022-09-12T14:03:11.030Z,1.70
2022-09-12T14:08:15.513Z,1.90
2022-09-12T14:13:28.079Z,2.20
2022-09-12T14:18:27.609Z,1.90
2022-09-12T14:23:30.009Z,1.97
2022-09-12T14:28:30.196Z,2.10
2022-09-12T14:33:28.622Z,1.93
2022-09-12T14:38:36.474Z,1.63
2022-09-12T14:43:37.000Z,1.80
2022-09-12T14:48:38.460Z,2.10
2022-09-12T14:53:39.386Z,2.43
2022-09-12T14:58:38.204Z,2.00
2022-09-12T15:03:38.131Z,2.00
2022-09-12T15:08:37.698Z,2.00
2022-09-12T15:13:41.300Z,2.13
2022-09-12T15:18:39.638Z,2.33
2022-09-12T15:23:43.773Z,2.50
2022-09-12T15:28:42.004Z,2.57
2022-09-12T15:33:40.381Z,2.60
2022-09-12T15:38:39.920Z,3.00
2022-09-12T15:43:38.046Z,2.97
2022-09-12T15:48:36.136Z,2.40
2022-09-12T15:53:34.262Z,2.70
2022-09-12T15:58:33.715Z,2.87
2022-09-12T16:03:32.434Z,3.00
2022-09-12T16:08:32.338Z,2.77
2022-09-12T16:13:30.455Z,2.60
2022-09-12T16:18:30.531Z,3.37
2022-09-12T16:23:28.630Z,9.17
2022-09-12T16:28:26.957Z,3.10
2022-09-12T16:33:25.130Z,2.97
2022-09-12T16:38:24.802Z,3.33
2022-09-12T16:43:23.010Z,2.63
2022-09-12T16:48:21.089Z,2.93
2022-09-12T16:53:19.255Z,3.10
2022-09-12T16:58:18.813Z,2.80
2022-09-12T17:03:17.386Z,2.43
2022-09-12T17:08:15.473Z,2.70
2022-09-12T17:13:13.643Z,2.60
2022-09-12T17:18:13.113Z,2.97
2022-09-12T17:23:11.254Z,3.00
2022-09-12T17:28:09.354Z,2.80
2022-09-12T17:33:07.452Z,3.13
2022-09-12T17:38:07.273Z,2.50
2022-09-12T17:43:05.445Z,3.00
2022-09-12T17:48:04.082Z,2.90
2022-09-12T17:53:02.266Z,3.10
2022-09-12T17:58:01.860Z,2.73
2022-09-12T18:03:00.051Z,3.10
2022-09-12T18:07:58.216Z,2.80
2022-09-12T18:12:57.501Z,3.13
2022-09-12T18:17:57.116Z,3.40
2022-09-12T18:22:55.280Z,3.10
2022-09-12T18:27:54.474Z,3.30
2022-09-12T18:32:52.580Z,2.93
2022-09-12T18:37:52.107Z,3.43
2022-09-12T18:42:51.404Z,3.33
2022-09-12T18:47:49.544Z,3.13
2022-09-12T18:52:47.751Z,3.13
2022-09-12T18:57:47.316Z,3.50
2022-09-12T19:02:45.589Z,3.53
2022-09-12T19:07:43.737Z,3.20
2022-09-12T19:12:41.903Z,4.23
2022-09-12T19:17:41.396Z,3.30
2022-09-12T19:22:39.525Z,3.37
2022-09-12T19:27:38.036Z,4.10
2022-09-12T19:32:36.105Z,4.50
2022-09-12T19:37:35.614Z,4.00
2022-09-12T19:42:33.922Z,3.90
2022-09-12T19:47:32.033Z,3.93
2022-09-12T19:52:30.159Z,3.70
2022-09-12T19:57:29.636Z,3.73
2022-09-12T20:02:28.139Z,4.70
2022-09-12T20:07:26.584Z,4.10
2022-09-12T20:12:24.764Z,3.70
2022-09-12T20:17:24.238Z,4.13
2022-09-12T20:22:22.334Z,4.37
2022-09-12T20:27:20.720Z,4.93
2022-09-12T20:32:18.947Z,5.27
2022-09-12T20:37:18.506Z,4.33
2022-09-12T20:42:16.636Z,6.30
2022-09-12T20:47:14.736Z,5.20
2022-09-12T20:52:12.936Z,5.17
2022-09-12T20:57:12.387Z,4.60
2022-09-12T21:02:14.491Z,5.80
2022-09-12T21:07:12.820Z,7.33
2022-09-12T21:12:12.274Z,9.90
2022-09-12T21:17:10.394Z,4.70
2022-09-12T21:22:09.621Z,5.10
2022-09-12T21:27:07.971Z,5.40
2022-09-12T21:32:12.158Z,7.30
2022-09-12T21:37:12.166Z,6.60
2022-09-12T21:42:10.586Z,8.13
2022-09-12T21:47:10.126Z,7.03
2022-09-12T21:52:08.340Z,17.93
2022-09-12T21:57:06.659Z,6.23
2022-09-12T22:02:08.550Z,11.90
2022-09-12T22:07:08.259Z,7.67
2022-09-12T22:12:06.772Z,6.80
2022-09-12T22:17:05.239Z,5.20
2022-09-12T22:22:29.382Z,6.73
2022-09-12T22:27:28.869Z,11.30
2022-09-12T22:32:26.983Z,5.40
2022-09-12T22:37:25.170Z,5.70
2022-09-12T22:42:23.407Z,6.50
2022-09-12T22:47:23.089Z,20.57
2022-09-12T22:52:21.203Z,14.20
2022-09-12T22:57:19.679Z,7.80
2022-09-12T23:02:17.788Z,6.83
2022-09-12T23:07:17.254Z,5.60
2022-09-12T23:12:15.540Z,6.40
2022-09-12T23:17:13.666Z,8.47
2022-09-12T23:22:11.880Z,5.30
2022-09-12T23:27:11.392Z,6.20
2022-09-12T23:32:09.509Z,6.73
2022-09-12T23:37:07.721Z,5.93
2022-09-12T23:42:06.175Z,10.00
2022-09-12T23:47:05.766Z,7.77
2022-09-12T23:52:04.337Z,7.43
2022-09-12T23:57:02.501Z,6.40
